Time;durP1;ratioP1;P1;durP2;ratioP2;P2;SDS_P1;SDS_P2;PMS_P1;PMS_P2;Temp;Humidity;BMP_temperature;BMP_pressure;BME280_temperature;BME280_humidity;BME280_pressure;Samples;Min_cycle;Max_cycle;Signal;HPM_P1;HPM_P2
2023/05/24 00:05:54;;;;;;;;;;;16.80;70.00;;;;;;21082742;28;19947;-57
2023/05/24 00:15:55;;;;;;;;;;;16.70;70.40;;;;;;21083242;28;19935;-56
2023/05/24 00:25:56;;;;;;;;;;;16.80;68.80;;;;;;21081184;28;19971;-57
2023/05/24 00:35:56;;;;;;;;;;;16.70;68.10;;;;;;21080708;28;19925;-57
2023/05/24 00:46:17;;;;;;;;;;;16.90;68.10;;;;;;21081088;28;19979;-57
2023/05/24 00:56:18;;;;;;;;;;;16.80;67.70;;;;;;21078745;28;19924;-57
2023/05/24 01:06:19;;;;;;;;;;;16.70;67.60;;;;;;21079647;28;19928;-55
2023/05/24 01:16:45;;;;;;;;;;;16.70;67.00;;;;;;21079200;28;20072;-56
2023/05/24 01:26:45;;;;;;;;;;;16.80;66.80;;;;;;21049545;28;19924;-57
2023/05/24 01:36:48;;;;;;;;;;;16.70;66.60;;;;;;21076558;28;20737;-57
2023/05/24 01:46:52;;;;;;;;;;;16.70;66.80;;;;;;21077102;28;19936;-57
2023/05/24 01:56:54;;;;;;;;;;;16.70;66.70;;;;;;21077679;28;20266;-56
2023/05/24 02:06:55;;;;;;;;;;;16.60;67.00;;;;;;21077125;28;20011;-56
2023/05/24 02:16:57;;;;;;;;;;;16.60;66.90;;;;;;21091559;28;19975;-56
2023/05/24 02:26:58;;;;;;;;;;;16.60;67.00;;;;;;21090213;28;19943;-56
2023/05/24 02:36:58;;;;;;;;;;;16.60;66.80;;;;;;21089348;28;19924;-57
2023/05/24 02:46:59;;;;;;;;;;;16.50;67.50;;;;;;21089971;28;20007;-57
2023/05/24 02:57:00;;;;;;;;;;;16.50;67.20;;;;;;21087915;28;19924;-56
2023/05/24 03:07:02;;;;;;;;;;;16.50;67.50;;;;;;21088334;28;19963;-56
2023/05/24 03:17:02;;;;;;;;;;;16.40;67.20;;;;;;21086178;28;19925;-55
2023/05/24 03:27:04;;;;;;;;;;;16.40;67.10;;;;;;21084835;28;19970;-57
2023/05/24 03:37:05;;;;;;;;;;;16.40;67.30;;;;;;21084659;28;19973;-58
2023/05/24 03:47:06;;;;;;;;;;;16.50;67.00;;;;;;21085303;28;19973;-56
2023/05/24 03:57:06;;;;;;;;;;;16.50;66.70;;;;;;21083785;28;19930;-56
2023/05/24 04:07:10;;;;;;;;;;;16.40;67.10;;;;;;21083996;28;19972;-58
2023/05/24 04:17:11;;;;;;;;;;;16.20;68.10;;;;;;21084716;28;20391;-57
2023/05/24 04:27:12;;;;;;;;;;;16.20;68.20;;;;;;21083752;28;19978;-57
2023/05/24 04:37:12;;;;;;;;;;;16.20;68.00;;;;;;21081100;28;19943;-56
2023/05/24 04:47:13;;;;;;;;;;;16.20;68.30;;;;;;21081545;28;19986;-56
2023/05/24 04:57:14;;;;;;;;;;;16.20;68.40;;;;;;21079244;28;19967;-56
2023/05/24 05:07:14;;;;;;;;;;;16.30;68.00;;;;;;21080439;28;20365;-57
2023/05/24 05:17:15;;;;;;;;;;;16.30;68.20;;;;;;21071306;28;19931;-56
2023/05/24 05:27:16;;;;;;;;;;;16.30;67.90;;;;;;21078916;28;19924;-56
2023/05/24 05:37:16;;;;;;;;;;;16.40;67.10;;;;;;21079306;28;20293;-56
2023/05/24 05:47:17;;;;;;;;;;;16.30;67.30;;;;;;21087582;28;19971;-56
2023/05/24 05:57:22;;;;;;;;;;;16.30;67.10;;;;;;21095298;28;20011;-56
2023/05/24 06:07:23;;;;;;;;;;;16.50;66.10;;;;;;21094458;28;19931;-55
2023/05/24 06:17:24;;;;;;;;;;;16.50;66.70;;;;;;21092223;28;19924;-57
2023/05/24 06:27:24;;;;;;;;;;;16.60;65.60;;;;;;21091435;28;19924;-57
2023/05/24 06:37:25;;;;;;;;;;;16.60;65.70;;;;;;21090341;28;19938;-58
2023/05/24 06:47:25;;;;;;;;;;;16.70;65.50;;;;;;21090976;28;19924;-58
2023/05/24 06:57:26;;;;;;;;;;;16.70;65.50;;;;;;21088444;28;20299;-55
2023/05/24 07:07:27;;;;;;;;;;;16.80;65.10;;;;;;21088039;28;19977;-55
2023/05/24 07:17:27;;;;;;;;;;;16.90;65.00;;;;;;21086523;28;19975;-57
2023/05/24 07:27:28;;;;;;;;;;;16.90;64.30;;;;;;21086203;28;19928;-57
2023/05/24 07:37:29;;;;;;;;;;;17.10;64.00;;;;;;21087451;28;19924;-56
2023/05/24 07:47:29;;;;;;;;;;;17.30;63.20;;;;;;21086495;28;19979;-57
2023/05/24 07:57:30;;;;;;;;;;;18.00;61.30;;;;;;21085611;28;19924;-57
2023/05/24 08:07:30;;;;;;;;;;;18.60;58.60;;;;;;21083674;28;19977;-57
2023/05/24 08:17:31;;;;;;;;;;;19.00;60.10;;;;;;21084122;28;19924;-59
2023/05/24 08:27:32;;;;;;;;;;;19.60;58.60;;;;;;21081817;28;20003;-62
2023/05/24 08:37:32;;;;;;;;;;;19.60;57.00;;;;;;21082249;28;19930;-60
2023/05/24 08:47:35;;;;;;;;;;;19.70;56.50;;;;;;21080811;28;19924;-58
2023/05/24 08:57:40;;;;;;;;;;;20.20;54.50;;;;;;21080595;28;19924;-61
2023/05/24 09:07:41;;;;;;;;;;;20.80;53.20;;;;;;21078943;28;20025;-58
2023/05/24 09:17:42;;;;;;;;;;;21.10;52.50;;;;;;21079257;28;19924;-60
2023/05/24 09:27:47;;;;;;;;;;;21.20;52.00;;;;;;21080045;28;20292;-59
2023/05/24 09:37:48;;;;;;;;;;;20.90;52.20;;;;;;21078155;28;19935;-57
2023/05/24 09:47:51;;;;;;;;;;;21.20;52.40;;;;;;21078675;28;20007;-58
2023/05/24 09:58:01;;;;;;;;;;;21.10;52.10;;;;;;21077422;28;19932;-57
2023/05/24 10:08:05;;;;;;;;;;;21.00;52.60;;;;;;21078414;28;19924;-57
2023/05/24 10:18:07;;;;;;;;;;;21.20;51.90;;;;;;21077153;28;20282;-56
2023/05/24 10:28:08;;;;;;;;;;;21.20;50.30;;;;;;21075951;28;19927;-56
2023/05/24 10:38:09;;;;;;;;;;;21.40;49.50;;;;;;21091349;28;19924;-57
2023/05/24 10:48:13;;;;;;;;;;;21.40;49.50;;;;;;21090167;28;19994;-55
2023/05/24 10:58:14;;;;;;;;;;;21.40;49.20;;;;;;21089197;28;19931;-56
2023/05/24 11:08:31;;;;;;;;;;;21.40;48.40;;;;;;21088007;28;19930;-56
2023/05/24 11:18:37;;;;;;;;;;;21.40;47.70;;;;;;21088176;28;19931;-58
2023/05/24 11:28:38;;;;;;;;;;;21.40;46.40;;;;;;21088312;28;19927;-56
2023/05/24 11:38:38;;;;;;;;;;;21.80;45.40;;;;;;21087387;28;19928;-56
2023/05/24 11:48:39;;;;;;;;;;;22.20;45.60;;;;;;21084705;28;19932;-57
2023/05/24 11:58:44;;;;;;;;;;;22.30;46.00;;;;;;21083967;28;20393;-55
2023/05/24 12:08:46;;;;;;;;;;;22.40;43.90;;;;;;21084944;28;19931;-57
2023/05/24 12:18:47;;;;;;;;;;;22.80;42.00;;;;;;21082265;28;19984;-58
2023/05/24 12:28:52;;;;;;;;;;;23.00;41.70;;;;;;21082185;28;20389;-56
2023/05/24 12:38:55;;;;;;;;;;;23.20;39.90;;;;;;21082614;28;19924;-57
2023/05/24 12:48:56;;;;;;;;;;;23.40;40.20;;;;;;21080895;28;19927;-59
2023/05/24 12:58:56;;;;;;;;;;;23.90;39.00;;;;;;21079810;28;19989;-57
2023/05/24 13:08:57;;;;;;;;;;;23.70;38.30;;;;;;21081293;28;20392;-56
2023/05/24 13:18:58;;;;;;;;;;;23.70;37.60;;;;;;21080272;28;19964;-58
2023/05/24 13:28:59;;;;;;;;;;;23.60;38.00;;;;;;21080161;28;19971;-57
2023/05/24 13:39:00;;;;;;;;;;;23.60;37.10;;;;;;21078941;28;20302;-56
2023/05/24 13:49:01;;;;;;;;;;;23.90;36.60;;;;;;21078271;28;20389;-56
2023/05/24 13:59:03;;;;;;;;;;;23.80;36.60;;;;;;21075981;28;20356;-58
2023/05/24 14:09:06;;;;;;;;;;;23.90;36.40;;;;;;21086513;28;19924;-57
2023/05/24 14:19:06;;;;;;;;;;;24.10;36.00;;;;;;21092865;28;19964;-56
2023/05/24 14:29:08;;;;;;;;;;;24.10;35.90;;;;;;21091621;28;19924;-56
2023/05/24 14:39:09;;;;;;;;;;;24.30;35.80;;;;;;21091224;28;19993;-56
2023/05/24 14:49:09;;;;;;;;;;;24.30;36.30;;;;;;21090875;28;19924;-57
2023/05/24 14:59:10;;;;;;;;;;;24.50;36.00;;;;;;21089172;28;20361;-58
2023/05/24 15:09:10;;;;;;;;;;;24.40;36.60;;;;;;21089282;28;20391;-57
2023/05/24 15:19:12;;;;;;;;;;;24.70;36.50;;;;;;21088357;28;19967;-56
2023/05/24 15:29:12;;;;;;;;;;;24.90;35.60;;;;;;21087383;28;20020;-59
2023/05/24 15:39:13;;;;;;;;;;;25.00;35.40;;;;;;21085971;28;19974;-58
2023/05/24 15:49:13;;;;;;;;;;;24.70;36.50;;;;;;21086788;28;19924;-56
2023/05/24 15:59:14;;;;;;;;;;;24.50;36.60;;;;;;21086752;28;19924;-63
2023/05/24 16:09:15;;;;;;;;;;;23.90;41.50;;;;;;21085083;28;19924;-58
2023/05/24 16:19:15;;;;;;;;;;;23.40;44.70;;;;;;21082204;28;19931;-59
2023/05/24 16:29:17;;;;;;;;;;;22.90;50.90;;;;;;21082121;28;20341;-58
2023/05/24 16:39:18;;;;;;;;;;;22.70;51.10;;;;;;21082329;28;20390;-62
2023/05/24 16:49:18;;;;;;;;;;;22.60;51.30;;;;;;21081447;28;20005;-59
2023/05/24 16:59:19;;;;;;;;;;;22.60;51.70;;;;;;21081121;28;19936;-58
2023/05/24 17:09:20;;;;;;;;;;;22.60;51.50;;;;;;21080263;28;19928;-58
2023/05/24 17:19:21;;;;;;;;;;;22.60;50.80;;;;;;21071753;28;19924;-61
2023/05/24 17:29:22;;;;;;;;;;;22.60;50.60;;;;;;21079871;28;19931;-58
2023/05/24 17:39:23;;;;;;;;;;;22.70;49.80;;;;;;21083262;28;19924;-58
2023/05/24 17:49:23;;;;;;;;;;;22.60;46.90;;;;;;21094806;28;19949;-60
2023/05/24 17:59:24;;;;;;;;;;;22.60;49.60;;;;;;21093661;28;20002;-58
2023/05/24 18:09:26;;;;;;;;;;;22.40;50.80;;;;;;21094775;28;20397;-58
2023/05/24 18:19:26;;;;;;;;;;;22.30;47.70;;;;;;21093087;28;19928;-57
2023/05/24 18:29:27;;;;;;;;;;;22.20;47.70;;;;;;21092824;28;19924;-58
2023/05/24 18:39:29;;;;;;;;;;;22.10;49.40;;;;;;21091907;28;19928;-59
2023/05/24 18:49:32;;;;;;;;;;;22.00;50.50;;;;;;21090150;28;19959;-58
2023/05/24 18:59:33;;;;;;;;;;;21.90;49.50;;;;;;21090416;28;19928;-58
2023/05/24 19:09:35;;;;;;;;;;;21.90;49.00;;;;;;21089915;28;19970;-57
2023/05/24 19:19:35;;;;;;;;;;;21.80;47.70;;;;;;21087323;28;19970;-58
2023/05/24 19:29:38;;;;;;;;;;;21.60;48.90;;;;;;21087974;28;20366;-58
2023/05/24 19:39:39;;;;;;;;;;;21.50;50.10;;;;;;21086150;28;19971;-57
2023/05/24 19:49:39;;;;;;;;;;;21.30;50.50;;;;;;21083542;28;19978;-57
2023/05/24 19:59:40;;;;;;;;;;;21.20;50.80;;;;;;21083119;28;19924;-58
2023/05/24 20:09:41;;;;;;;;;;;21.20;51.00;;;;;;21084709;28;19934;-60
2023/05/24 20:19:41;;;;;;;;;;;21.20;50.80;;;;;;21083359;28;19979;-57
2023/05/24 20:29:42;;;;;;;;;;;21.10;51.10;;;;;;21081953;28;19931;-58
2023/05/24 20:39:43;;;;;;;;;;;21.10;50.80;;;;;;21080394;28;19971;-58
2023/05/24 20:49:44;;;;;;;;;;;21.10;50.10;;;;;;21079962;28;19975;-57
2023/05/24 20:59:45;;;;;;;;;;;21.00;49.80;;;;;;21080650;28;19924;-60
2023/05/24 21:09:45;;;;;;;;;;;20.90;49.10;;;;;;21080194;28;19949;-59
2023/05/24 21:19:46;;;;;;;;;;;20.90;49.60;;;;;;21077766;28;19924;-58
2023/05/24 21:29:47;;;;;;;;;;;20.80;51.40;;;;;;21079136;28;20010;-57
2023/05/24 21:39:48;;;;;;;;;;;20.70;51.50;;;;;;21078328;28;19924;-57
2023/05/24 21:49:49;;;;;;;;;;;20.60;53.00;;;;;;21077752;28;19943;-57
2023/05/24 21:59:50;;;;;;;;;;;20.50;54.10;;;;;;21077545;28;20014;-57
2023/05/24 22:09:51;;;;;;;;;;;20.40;55.10;;;;;;21076025;28;20017;-58
2023/05/24 22:19:52;;;;;;;;;;;20.40;55.70;;;;;;21076168;28;19928;-58
2023/05/24 22:29:53;;;;;;;;;;;20.30;56.10;;;;;;21085804;28;20400;-58
2023/05/24 22:39:53;;;;;;;;;;;20.10;56.50;;;;;;21091887;28;19970;-57
2023/05/24 22:49:54;;;;;;;;;;;20.10;56.60;;;;;;21091017;28;20407;-57
2023/05/24 22:59:55;;;;;;;;;;;19.90;56.70;;;;;;21090336;28;19924;-57
2023/05/24 23:09:55;;;;;;;;;;;19.70;56.80;;;;;;21090021;28;19928;-56
2023/05/24 23:19:56;;;;;;;;;;;19.70;57.10;;;;;;21088442;28;19931;-56
2023/05/24 23:29:56;;;;;;;;;;;19.70;57.30;;;;;;21089230;28;19938;-57
2023/05/24 23:40:01;;;;;;;;;;;19.50;57.70;;;;;;21088119;28;20027;-57
2023/05/24 23:50:02;;;;;;;;;;;19.50;57.80;;;;;;21087418;28;20010;-57
